createdAt,value
2018-02-24T00:02:15.523Z,58.30
2018-02-24T00:04:45.169Z,62.07
2018-02-24T00:07:15.003Z,64.80
2018-02-24T00:09:44.694Z,63.20
2018-02-24T00:12:14.651Z,63.23
2018-02-24T00:14:44.148Z,63.73
2018-02-24T00:17:13.628Z,76.63
2018-02-24T00:19:43.056Z,63.87
2018-02-24T00:22:12.770Z,61.37
2018-02-24T00:24:42.411Z,59.57
2018-02-24T00:27:12.200Z,71.93
2018-02-24T00:29:42.415Z,67.23
2018-02-24T00:32:11.816Z,69.70
2018-02-24T00:34:41.439Z,70.43
2018-02-24T00:37:10.886Z,65.70
2018-02-24T00:39:40.365Z,61.63
2018-02-24T00:42:10.046Z,62.20
2018-02-24T00:44:39.436Z,62.07
2018-02-24T00:47:09.063Z,58.57
2018-02-24T00:49:39.168Z,67.10
2018-02-24T00:52:08.663Z,66.13
2018-02-24T00:54:38.140Z,66.27
2018-02-24T00:57:07.688Z,57.70
2018-02-24T00:59:37.856Z,65.87
2018-02-24T01:02:07.310Z,63.57
2018-02-24T01:04:36.819Z,65.30
2018-02-24T01:07:07.029Z,59.57
2018-02-24T01:09:36.548Z,68.07
2018-02-24T01:12:05.970Z,57.67
2018-02-24T01:14:35.452Z,61.03
2018-02-24T01:17:05.009Z,58.27
2018-02-24T01:19:34.897Z,56.43
2018-02-24T01:22:04.393Z,57.77
2018-02-24T01:24:33.890Z,57.83
2018-02-24T01:27:03.417Z,60.47
2018-02-24T01:29:34.083Z,58.23
2018-02-24T01:32:04.435Z,64.33
2018-02-24T01:34:33.850Z,57.17
2018-02-24T01:39:39.265Z,57.57
2018-02-24T01:42:08.588Z,58.57
2018-02-24T01:44:38.758Z,58.90
2018-02-24T01:47:08.088Z,59.50
2018-02-24T01:49:37.596Z,63.90
2018-02-24T01:52:06.977Z,58.60
2018-02-24T01:54:36.557Z,59.97
2018-02-24T01:57:05.871Z,60.83
2018-02-24T01:59:35.270Z,53.97
2018-02-24T02:02:05.509Z,57.33
2018-02-24T02:04:34.865Z,58.30
2018-02-24T02:07:04.527Z,55.03
2018-02-24T02:09:34.012Z,55.97
2018-02-24T02:12:03.432Z,49.80
2018-02-24T02:14:33.136Z,49.47
2018-02-24T02:17:02.965Z,54.17
2018-02-24T02:19:32.497Z,56.47
2018-02-24T02:22:01.834Z,57.37
2018-02-24T02:24:31.204Z,52.67
2018-02-24T02:27:00.576Z,71.53
2018-02-24T02:29:29.893Z,70.77
2018-02-24T02:31:59.298Z,71.33
2018-02-24T02:34:28.720Z,77.43
2018-02-24T02:36:58.046Z,74.30
2018-02-24T02:39:27.621Z,68.53
2018-02-24T02:41:57.661Z,75.13
2018-02-24T02:44:27.163Z,75.63
2018-02-24T02:46:56.541Z,70.10
2018-02-24T02:49:26.180Z,80.57
2018-02-24T02:51:56.344Z,69.60
2018-02-24T02:54:25.736Z,67.43
2018-02-24T02:56:55.125Z,73.73
2018-02-24T02:59:25.536Z,83.43
2018-02-24T03:01:54.913Z,65.63
2018-02-24T03:04:24.255Z,79.00
2018-02-24T03:06:54.418Z,75.03
2018-02-24T03:09:24.009Z,81.27
2018-02-24T03:11:53.619Z,92.57
2018-02-24T03:14:23.197Z,99.57
2018-02-24T03:16:53.381Z,95.47
2018-02-24T03:19:22.754Z,90.23
2018-02-24T03:21:53.291Z,106.03
2018-02-24T03:24:22.737Z,103.77
2018-02-24T03:26:52.818Z,103.80
2018-02-24T03:29:22.502Z,104.13
2018-02-24T03:31:52.141Z,100.47
2018-02-24T03:34:21.562Z,104.37
2018-02-24T03:36:51.305Z,103.13
2018-02-24T03:39:20.747Z,98.97
2018-02-24T03:41:50.965Z,100.37
2018-02-24T03:44:20.383Z,100.47
2018-02-24T03:46:49.852Z,98.90
2018-02-24T03:49:19.217Z,108.57
2018-02-24T03:51:49.305Z,111.33
2018-02-24T03:54:18.885Z,107.93
2018-02-24T03:56:48.402Z,105.90
2018-02-24T03:59:17.704Z,105.17
2018-02-24T04:01:47.730Z,98.47
2018-02-24T04:04:17.716Z,106.87
2018-02-24T04:06:48.017Z,111.87
2018-02-24T04:09:17.548Z,104.70
2018-02-24T04:11:46.979Z,109.70
2018-02-24T04:14:16.374Z,105.77
2018-02-24T04:16:45.821Z,103.90
2018-02-24T04:19:15.215Z,103.43
2018-02-24T04:21:45.327Z,113.17
2018-02-24T04:24:14.802Z,109.63
2018-02-24T04:26:44.251Z,109.83
2018-02-24T04:29:13.633Z,94.83
2018-02-24T04:31:43.012Z,101.93
2018-02-24T04:34:13.380Z,93.47
2018-02-24T04:36:43.597Z,100.37
2018-02-24T04:39:12.964Z,102.87
2018-02-24T04:41:42.580Z,106.60
2018-02-24T04:44:12.171Z,98.83
2018-02-24T04:46:41.805Z,98.77
2018-02-24T04:49:11.273Z,104.23
2018-02-24T04:51:42.521Z,94.67
2018-02-24T04:54:11.965Z,106.83
2018-02-24T04:56:42.652Z,106.47
2018-02-24T04:59:16.358Z,98.00
2018-02-24T05:01:46.662Z,97.97
2018-02-24T05:04:20.285Z,111.13
2018-02-24T05:06:50.744Z,93.67
2018-02-24T05:09:22.169Z,103.80
2018-02-24T05:11:54.543Z,99.97
2018-02-24T05:14:30.098Z,95.10
2018-02-24T05:17:04.230Z,101.53
2018-02-24T05:19:35.830Z,108.07
2018-02-24T05:22:12.398Z,102.53
2018-02-24T05:24:41.838Z,107.70
2018-02-24T05:27:16.546Z,96.63
2018-02-24T05:29:48.931Z,102.57
2018-02-24T05:35:06.579Z,96.70
2018-02-24T05:37:37.497Z,102.13
2018-02-24T05:40:09.271Z,103.20
2018-02-24T05:42:42.729Z,105.73
2018-02-24T05:45:13.476Z,101.20
2018-02-24T05:47:42.967Z,101.97
2018-02-24T05:50:12.522Z,97.67
2018-02-24T05:52:42.151Z,95.50
2018-02-24T05:55:12.145Z,91.37
2018-02-24T05:57:41.550Z,97.37
2018-02-24T06:00:11.021Z,90.40
2018-02-24T06:02:46.051Z,100.43
2018-02-24T06:05:15.612Z,92.97
2018-02-24T06:07:45.127Z,97.47
2018-02-24T06:10:15.468Z,97.07
2018-02-24T06:12:46.528Z,105.03
2018-02-24T06:15:17.276Z,99.97
2018-02-24T06:17:49.685Z,102.80
2018-02-24T06:20:19.677Z,100.27
2018-02-24T06:22:50.262Z,102.33
2018-02-24T06:25:20.977Z,99.40
2018-02-24T06:27:54.762Z,99.83
2018-02-24T06:33:02.833Z,101.27
2018-02-24T06:35:32.839Z,105.43
2018-02-24T06:38:03.717Z,98.13
2018-02-24T06:40:34.859Z,102.77
2018-02-24T06:43:06.807Z,98.20
2018-02-24T06:45:37.602Z,98.00
2018-02-24T06:48:10.038Z,96.13
2018-02-24T06:50:40.806Z,95.07
2018-02-24T08:27:14.149Z,92.47
2018-02-24T10:38:47.342Z,99.40
2018-02-24T10:41:16.786Z,104.60
2018-02-24T10:43:46.189Z,93.47
2018-02-24T10:46:15.893Z,104.43
2018-02-24T10:48:46.178Z,97.17
2018-02-24T10:58:44.905Z,103.90
2018-02-24T11:01:14.348Z,104.43
2018-02-24T11:03:44.528Z,95.20
2018-02-24T11:06:13.953Z,113.03
2018-02-24T11:08:43.478Z,101.10
2018-02-24T11:39:12.690Z,100.03
2018-02-24T11:41:42.255Z,94.23
2018-02-24T11:44:15.027Z,106.67
2018-02-24T11:47:16.205Z,96.83
2018-02-24T11:49:52.415Z,89.67
2018-02-24T11:52:23.081Z,107.17
2018-02-24T11:59:11.138Z,93.17
2018-02-24T12:01:40.460Z,78.80
2018-02-24T12:04:10.081Z,89.43
2018-02-24T12:06:39.367Z,91.93
2018-02-24T12:09:08.768Z,94.97
2018-02-24T12:11:38.347Z,88.40
2018-02-24T12:14:09.754Z,90.37
2018-02-24T12:16:46.862Z,90.10
2018-02-24T12:19:17.351Z,91.13
2018-02-24T12:21:49.982Z,103.10
2018-02-24T12:24:19.777Z,87.23
2018-02-24T12:26:56.670Z,93.70
2018-02-24T12:29:27.515Z,92.07
2018-02-24T12:31:56.814Z,92.33
2018-02-24T12:34:33.916Z,98.57
2018-02-24T12:37:03.343Z,92.20
2018-02-24T12:39:34.574Z,88.70
2018-02-24T12:42:03.981Z,87.13
2018-02-24T12:44:33.528Z,86.57
2018-02-24T12:47:03.105Z,88.10
2018-02-24T12:49:34.084Z,96.07
2018-02-24T12:52:03.773Z,86.63
2018-02-24T12:54:33.540Z,87.67
2018-02-24T13:17:11.337Z,79.93
2018-02-24T13:19:49.507Z,83.53
2018-02-24T13:22:18.901Z,86.23
2018-02-24T13:24:48.327Z,90.07
2018-02-24T13:27:17.954Z,88.03
2018-02-24T13:54:30.619Z,83.60
2018-02-24T13:57:01.603Z,78.73
2018-02-24T13:59:31.291Z,91.47
2018-02-24T14:02:02.101Z,82.40
2018-02-24T14:04:32.338Z,80.30
2018-02-24T14:17:15.400Z,68.83
2018-02-24T14:19:47.592Z,77.37
2018-02-24T14:22:17.112Z,78.93
2018-02-24T14:24:46.560Z,75.27
2018-02-24T14:27:15.968Z,71.87
2018-02-24T14:29:45.480Z,64.17
2018-02-24T14:32:15.787Z,68.37
2018-02-24T14:34:45.197Z,77.23
2018-02-24T14:37:14.733Z,75.97
2018-02-24T14:39:44.508Z,70.57
2018-02-24T14:42:14.143Z,79.23
2018-02-24T14:44:43.548Z,68.23
2018-02-24T14:47:13.446Z,66.20
2018-02-24T16:14:32.184Z,56.70
2018-02-24T16:17:02.436Z,45.03
2018-02-24T16:19:32.221Z,53.47
2018-02-24T16:22:39.110Z,46.93
